sensor_id;sensor_type;location;lat;lon;timestamp;pressure;altitude;pressure_sealevel;temperature;humidity
21276;BME280;36472;52.170;20.884;2023-10-31T00:00:18;99262.66;;;12.81;100.00
21276;BME280;36472;52.170;20.884;2023-10-31T00:03:08;99267.94;;;12.81;100.00
21276;BME280;36472;52.170;20.884;2023-10-31T00:05:38;99261.03;;;12.80;100.00
21276;BME280;36472;52.170;20.884;2023-10-31T00:08:07;99254.34;;;12.76;99.97
21276;BME280;36472;52.170;20.884;2023-10-31T00:10:36;99250.06;;;12.75;100.00
21276;BME280;36472;52.170;20.884;2023-10-31T00:13:05;99261.72;;;12.72;100.00
21276;BME280;36472;52.170;20.884;2023-10-31T00:15:34;99250.47;;;12.70;100.00
21276;BME280;36472;52.170;20.884;2023-10-31T00:18:04;99250.63;;;12.68;100.00
21276;BME280;36472;52.170;20.884;2023-10-31T00:20:34;99243.00;;;12.65;100.00
21276;BME280;36472;52.170;20.884;2023-10-31T00:23:03;99240.34;;;12.65;100.00
21276;BME280;36472;52.170;20.884;2023-10-31T00:25:32;99242.84;;;12.67;100.00
21276;BME280;36472;52.170;20.884;2023-10-31T00:28:01;99232.03;;;12.60;100.00
21276;BME280;36472;52.170;20.884;2023-10-31T00:30:30;99230.41;;;12.59;100.00
21276;BME280;36472;52.170;20.884;2023-10-31T00:32:59;99222.22;;;12.62;100.00
21276;BME280;36472;52.170;20.884;2023-10-31T00:35:28;99221.94;;;12.56;100.00
21276;BME280;36472;52.170;20.884;2023-10-31T00:37:59;99219.44;;;12.54;100.00
21276;BME280;36472;52.170;20.884;2023-10-31T00:40:28;99222.91;;;12.54;100.00
21276;BME280;36472;52.170;20.884;2023-10-31T00:42:58;99211.81;;;12.51;100.00
21276;BME280;36472;52.170;20.884;2023-10-31T00:45:28;99212.50;;;12.53;100.00
21276;BME280;36472;52.170;20.884;2023-10-31T00:47:58;99212.22;;;12.56;100.00
21276;BME280;36472;52.170;20.884;2023-10-31T00:50:28;99199.59;;;12.50;100.00
21276;BME280;36472;52.170;20.884;2023-10-31T00:52:59;99198.94;;;12.48;100.00
21276;BME280;36472;52.170;20.884;2023-10-31T00:55:28;99182.56;;;12.44;100.00
21276;BME280;36472;52.170;20.884;2023-10-31T00:57:57;99178.13;;;12.45;100.00
21276;BME280;36472;52.170;20.884;2023-10-31T01:00:26;99180.63;;;12.46;100.00
21276;BME280;36472;52.170;20.884;2023-10-31T01:02:56;99170.22;;;12.45;100.00
21276;BME280;36472;52.170;20.884;2023-10-31T01:05:25;99172.84;;;12.45;100.00
21276;BME280;36472;52.170;20.884;2023-10-31T01:07:56;99155.53;;;12.42;100.00
21276;BME280;36472;52.170;20.884;2023-10-31T01:10:26;99150.94;;;12.44;100.00
21276;BME280;36472;52.170;20.884;2023-10-31T01:12:55;99134.31;;;12.44;100.00
21276;BME280;36472;52.170;20.884;2023-10-31T01:15:24;99138.19;;;12.40;100.00
21276;BME280;36472;52.170;20.884;2023-10-31T01:17:53;99128.78;;;12.37;100.00
21276;BME280;36472;52.170;20.884;2023-10-31T01:20:23;99126.28;;;12.35;100.00
21276;BME280;36472;52.170;20.884;2023-10-31T01:22:52;99133.94;;;12.29;100.00
21276;BME280;36472;52.170;20.884;2023-10-31T01:25:21;99133.41;;;12.25;100.00
21276;BME280;36472;52.170;20.884;2023-10-31T01:27:51;99127.72;;;12.20;100.00
21276;BME280;36472;52.170;20.884;2023-10-31T01:30:20;99116.38;;;12.20;100.00
21276;BME280;36472;52.170;20.884;2023-10-31T01:32:49;99130.78;;;12.15;100.00
21276;BME280;36472;52.170;20.884;2023-10-31T01:35:18;99136.56;;;12.19;100.00
21276;BME280;36472;52.170;20.884;2023-10-31T01:37:48;99138.38;;;12.19;100.00
21276;BME280;36472;52.170;20.884;2023-10-31T01:40:16;99139.34;;;12.18;100.00
21276;BME280;36472;52.170;20.884;2023-10-31T01:42:46;99118.56;;;12.24;100.00
21276;BME280;36472;52.170;20.884;2023-10-31T01:45:16;99090.72;;;12.12;100.00
21276;BME280;36472;52.170;20.884;2023-10-31T01:47:48;99085.69;;;12.28;100.00
21276;BME280;36472;52.170;20.884;2023-10-31T01:50:18;99075.84;;;12.30;100.00
21276;BME280;36472;52.170;20.884;2023-10-31T01:52:48;99041.50;;;12.22;100.00
21276;BME280;36472;52.170;20.884;2023-10-31T01:55:18;99044.78;;;12.34;100.00
21276;BME280;36472;52.170;20.884;2023-10-31T01:57:48;99049.22;;;12.33;100.00
21276;BME280;36472;52.170;20.884;2023-10-31T02:00:19;99046.06;;;12.30;100.00
21276;BME280;36472;52.170;20.884;2023-10-31T02:02:51;99032.44;;;12.34;100.00
21276;BME280;36472;52.170;20.884;2023-10-31T02:05:21;99015.66;;;12.35;100.00
21276;BME280;36472;52.170;20.884;2023-10-31T02:07:50;99013.97;;;12.34;100.00
21276;BME280;36472;52.170;20.884;2023-10-31T02:10:19;99012.88;;;12.37;100.00
21276;BME280;36472;52.170;20.884;2023-10-31T02:12:48;99019.13;;;12.36;100.00
21276;BME280;36472;52.170;20.884;2023-10-31T02:15:18;99012.03;;;12.37;100.00
21276;BME280;36472;52.170;20.884;2023-10-31T02:17:50;99004.84;;;12.39;100.00
21276;BME280;36472;52.170;20.884;2023-10-31T02:20:19;98982.09;;;12.38;100.00
21276;BME280;36472;52.170;20.884;2023-10-31T02:22:49;98986.66;;;12.45;100.00
21276;BME280;36472;52.170;20.884;2023-10-31T02:25:18;98980.97;;;12.40;100.00
21276;BME280;36472;52.170;20.884;2023-10-31T02:27:48;98991.72;;;12.47;100.00
21276;BME280;36472;52.170;20.884;2023-10-31T02:30:17;98987.91;;;12.41;100.00
21276;BME280;36472;52.170;20.884;2023-10-31T02:32:46;98980.38;;;12.46;100.00
21276;BME280;36472;52.170;20.884;2023-10-31T02:35:17;98961.84;;;12.38;100.00
21276;BME280;36472;52.170;20.884;2023-10-31T02:37:48;98974.00;;;12.49;100.00
21276;BME280;36472;52.170;20.884;2023-10-31T02:40:18;98953.88;;;12.48;100.00
21276;BME280;36472;52.170;20.884;2023-10-31T02:42:47;98964.38;;;12.58;100.00
21276;BME280;36472;52.170;20.884;2023-10-31T02:45:16;98957.00;;;12.61;100.00
21276;BME280;36472;52.170;20.884;2023-10-31T02:47:46;98960.84;;;12.67;100.00
21276;BME280;36472;52.170;20.884;2023-10-31T02:50:15;98957.25;;;12.68;100.00
21276;BME280;36472;52.170;20.884;2023-10-31T02:52:44;98935.00;;;12.70;100.00
21276;BME280;36472;52.170;20.884;2023-10-31T02:55:15;98931.41;;;12.71;100.00
21276;BME280;36472;52.170;20.884;2023-10-31T02:57:44;98925.56;;;12.78;100.00
21276;BME280;36472;52.170;20.884;2023-10-31T03:00:14;98927.19;;;12.79;100.00
21276;BME280;36472;52.170;20.884;2023-10-31T03:02:44;98924.25;;;12.82;100.00
21276;BME280;36472;52.170;20.884;2023-10-31T03:05:13;98917.09;;;12.92;100.00
21276;BME280;36472;52.170;20.884;2023-10-31T03:07:42;98915.44;;;12.91;100.00
21276;BME280;36472;52.170;20.884;2023-10-31T03:10:12;98921.22;;;12.95;100.00
21276;BME280;36472;52.170;20.884;2023-10-31T03:12:42;98905.41;;;12.95;100.00
21276;BME280;36472;52.170;20.884;2023-10-31T03:15:11;98906.63;;;13.00;100.00
21276;BME280;36472;52.170;20.884;2023-10-31T03:17:40;98909.13;;;13.02;100.00
21276;BME280;36472;52.170;20.884;2023-10-31T03:20:11;98905.03;;;13.07;100.00
21276;BME280;36472;52.170;20.884;2023-10-31T03:22:40;98892.81;;;13.06;100.00
21276;BME280;36472;52.170;20.884;2023-10-31T03:25:09;98895.81;;;13.12;100.00
21276;BME280;36472;52.170;20.884;2023-10-31T03:27:38;98894.41;;;13.17;100.00
21276;BME280;36472;52.170;20.884;2023-10-31T03:30:10;98889.66;;;13.21;100.00
21276;BME280;36472;52.170;20.884;2023-10-31T03:32:39;98887.53;;;13.24;100.00
21276;BME280;36472;52.170;20.884;2023-10-31T03:35:08;98878.66;;;13.25;100.00
21276;BME280;36472;52.170;20.884;2023-10-31T03:37:38;98864.00;;;13.31;100.00
21276;BME280;36472;52.170;20.884;2023-10-31T03:40:10;98854.16;;;13.33;100.00
21276;BME280;36472;52.170;20.884;2023-10-31T03:42:39;98854.19;;;13.41;100.00
21276;BME280;36472;52.170;20.884;2023-10-31T03:45:10;98838.06;;;13.44;100.00
21276;BME280;36472;52.170;20.884;2023-10-31T03:47:39;98838.88;;;13.45;100.00
21276;BME280;36472;52.170;20.884;2023-10-31T03:50:09;98829.44;;;13.42;100.00
21276;BME280;36472;52.170;20.884;2023-10-31T03:52:39;98826.19;;;13.49;100.00
21276;BME280;36472;52.170;20.884;2023-10-31T03:55:08;98821.44;;;13.52;100.00
21276;BME280;36472;52.170;20.884;2023-10-31T03:57:38;98808.03;;;13.45;100.00
21276;BME280;36472;52.170;20.884;2023-10-31T04:00:11;98814.03;;;13.56;100.00
21276;BME280;36472;52.170;20.884;2023-10-31T04:02:40;98816.69;;;13.64;100.00
21276;BME280;36472;52.170;20.884;2023-10-31T04:05:09;98798.22;;;13.64;99.68
21276;BME280;36472;52.170;20.884;2023-10-31T04:07:38;98796.09;;;13.68;99.49
21276;BME280;36472;52.170;20.884;2023-10-31T04:10:08;98797.25;;;13.73;99.09
21276;BME280;36472;52.170;20.884;2023-10-31T04:12:38;98810.16;;;13.76;99.11
21276;BME280;36472;52.170;20.884;2023-10-31T04:15:09;98809.81;;;13.79;98.75
21276;BME280;36472;52.170;20.884;2023-10-31T04:17:38;98810.19;;;13.84;98.23
21276;BME280;36472;52.170;20.884;2023-10-31T04:20:08;98779.31;;;13.85;97.74
21276;BME280;36472;52.170;20.884;2023-10-31T04:22:38;98770.91;;;13.90;97.19
21276;BME280;36472;52.170;20.884;2023-10-31T04:25:08;98771.22;;;13.87;96.93
21276;BME280;36472;52.170;20.884;2023-10-31T04:27:37;98784.63;;;13.93;97.06
21276;BME280;36472;52.170;20.884;2023-10-31T04:30:07;98783.16;;;13.99;96.22
21276;BME280;36472;52.170;20.884;2023-10-31T04:32:42;98777.06;;;14.07;95.68
21276;BME280;36472;52.170;20.884;2023-10-31T04:35:11;98773.09;;;14.11;95.44
21276;BME280;36472;52.170;20.884;2023-10-31T04:37:40;98743.53;;;14.07;95.41
21276;BME280;36472;52.170;20.884;2023-10-31T04:40:10;98750.50;;;14.16;94.81
21276;BME280;36472;52.170;20.884;2023-10-31T04:42:40;98736.97;;;14.19;94.61
21276;BME280;36472;52.170;20.884;2023-10-31T04:45:10;98728.69;;;14.22;94.41
21276;BME280;36472;52.170;20.884;2023-10-31T04:47:39;98728.69;;;14.22;94.22
21276;BME280;36472;52.170;20.884;2023-10-31T04:50:10;98728.53;;;14.24;94.05
21276;BME280;36472;52.170;20.884;2023-10-31T04:52:39;98724.59;;;14.28;93.57
21276;BME280;36472;52.170;20.884;2023-10-31T04:55:10;98714.19;;;14.35;93.48
21276;BME280;36472;52.170;20.884;2023-10-31T04:57:41;98721.44;;;14.41;92.68
21276;BME280;36472;52.170;20.884;2023-10-31T05:00:11;98699.50;;;14.40;92.36
21276;BME280;36472;52.170;20.884;2023-10-31T05:02:40;98694.19;;;14.40;92.03
21276;BME280;36472;52.170;20.884;2023-10-31T05:05:11;98685.47;;;14.40;91.82
21276;BME280;36472;52.170;20.884;2023-10-31T05:07:41;98671.56;;;14.38;91.76
21276;BME280;36472;52.170;20.884;2023-10-31T05:10:10;98673.88;;;14.41;91.10
21276;BME280;36472;52.170;20.884;2023-10-31T05:12:39;98679.97;;;14.50;90.56
21276;BME280;36472;52.170;20.884;2023-10-31T05:15:09;98672.88;;;14.58;90.13
21276;BME280;36472;52.170;20.884;2023-10-31T05:17:38;98673.41;;;14.62;89.77
21276;BME280;36472;52.170;20.884;2023-10-31T05:20:12;98671.09;;;14.67;89.48
21276;BME280;36472;52.170;20.884;2023-10-31T05:22:41;98673.88;;;14.57;89.36
21276;BME280;36472;52.170;20.884;2023-10-31T05:25:11;98673.88;;;14.57;89.27
21276;BME280;36472;52.170;20.884;2023-10-31T05:27:40;98668.78;;;14.64;88.93
21276;BME280;36472;52.170;20.884;2023-10-31T05:30:10;98671.41;;;14.64;88.51
21276;BME280;36472;52.170;20.884;2023-10-31T05:32:39;98675.22;;;14.45;89.02
21276;BME280;36472;52.170;20.884;2023-10-31T05:35:09;98672.56;;;14.62;88.94
21276;BME280;36472;52.170;20.884;2023-10-31T05:37:39;98668.94;;;14.63;88.34
21276;BME280;36472;52.170;20.884;2023-10-31T05:40:10;98675.69;;;14.65;88.02
21276;BME280;36472;52.170;20.884;2023-10-31T05:42:39;98670.06;;;14.60;87.81
21276;BME280;36472;52.170;20.884;2023-10-31T05:45:09;98673.19;;;14.72;87.53
21276;BME280;36472;52.170;20.884;2023-10-31T05:47:39;98675.34;;;14.76;87.63
21276;BME280;36472;52.170;20.884;2023-10-31T05:50:08;98659.63;;;14.83;87.80
21276;BME280;36472;52.170;20.884;2023-10-31T05:52:39;98670.56;;;14.72;88.14
21276;BME280;36472;52.170;20.884;2023-10-31T05:55:08;98657.66;;;14.69;87.55
21276;BME280;36472;52.170;20.884;2023-10-31T05:57:37;98662.63;;;14.72;87.47
21276;BME280;36472;52.170;20.884;2023-10-31T06:00:07;98671.53;;;14.79;87.14
21276;BME280;36472;52.170;20.884;2023-10-31T06:02:40;98657.97;;;14.82;87.04
21276;BME280;36472;52.170;20.884;2023-10-31T06:05:09;98664.41;;;14.88;86.50
21276;BME280;36472;52.170;20.884;2023-10-31T06:07:40;98669.50;;;14.89;86.11
21276;BME280;36472;52.170;20.884;2023-10-31T06:10:09;98687.19;;;14.89;85.93
21276;BME280;36472;52.170;20.884;2023-10-31T06:12:39;98686.06;;;14.83;85.68
21276;BME280;36472;52.170;20.884;2023-10-31T06:15:09;98689.31;;;15.02;85.18
21276;BME280;36472;52.170;20.884;2023-10-31T06:17:38;98668.97;;;15.02;84.75
21276;BME280;36472;52.170;20.884;2023-10-31T06:20:08;98670.03;;;14.93;86.56
21276;BME280;36472;52.170;20.884;2023-10-31T06:22:39;98680.63;;;14.85;87.30
21276;BME280;36472;52.170;20.884;2023-10-31T06:25:08;98671.41;;;14.72;88.66
21276;BME280;36472;52.170;20.884;2023-10-31T06:27:37;98690.22;;;14.77;90.07
21276;BME280;36472;52.170;20.884;2023-10-31T06:30:08;98674.69;;;14.83;89.93
21276;BME280;36472;52.170;20.884;2023-10-31T06:32:53;98680.81;;;14.67;89.69
21276;BME280;36472;52.170;20.884;2023-10-31T06:35:23;98674.38;;;14.69;90.22
21276;BME280;36472;52.170;20.884;2023-10-31T06:37:56;98663.66;;;14.63;90.73
21276;BME280;36472;52.170;20.884;2023-10-31T06:40:25;98657.34;;;14.64;88.89
21276;BME280;36472;52.170;20.884;2023-10-31T06:42:54;98666.38;;;14.86;89.22
21276;BME280;36472;52.170;20.884;2023-10-31T06:45:23;98666.53;;;14.84;88.71
21276;BME280;36472;52.170;20.884;2023-10-31T06:47:53;98674.16;;;14.79;88.75
21276;BME280;36472;52.170;20.884;2023-10-31T06:50:22;98674.84;;;14.81;89.08
21276;BME280;36472;52.170;20.884;2023-10-31T06:52:51;98670.19;;;14.91;88.03
21276;BME280;36472;52.170;20.884;2023-10-31T06:55:21;98675.41;;;15.00;88.36
21276;BME280;36472;52.170;20.884;2023-10-31T06:57:50;98660.41;;;15.00;88.64
21276;BME280;36472;52.170;20.884;2023-10-31T07:00:19;98653.47;;;14.91;88.04
21276;BME280;36472;52.170;20.884;2023-10-31T07:02:48;98654.25;;;15.00;88.28
21276;BME280;36472;52.170;20.884;2023-10-31T07:05:18;98651.63;;;15.00;88.84
21276;BME280;36472;52.170;20.884;2023-10-31T07:07:48;98660.88;;;15.04;88.39
21276;BME280;36472;52.170;20.884;2023-10-31T07:10:17;98658.72;;;15.07;88.42
21276;BME280;36472;52.170;20.884;2023-10-31T07:12:47;98650.91;;;15.14;87.41
21276;BME280;36472;52.170;20.884;2023-10-31T07:15:16;98651.25;;;15.11;86.87
21276;BME280;36472;52.170;20.884;2023-10-31T07:17:45;98644.28;;;15.18;86.75
21276;BME280;36472;52.170;20.884;2023-10-31T07:20:14;98651.91;;;15.13;85.87
21276;BME280;36472;52.170;20.884;2023-10-31T07:22:44;98640.16;;;15.15;85.05
21276;BME280;36472;52.170;20.884;2023-10-31T07:25:13;98634.47;;;15.27;85.25
21276;BME280;36472;52.170;20.884;2023-10-31T07:27:42;98631.09;;;15.41;84.10
21276;BME280;36472;52.170;20.884;2023-10-31T07:30:13;98624.63;;;15.44;84.69
21276;BME280;36472;52.170;20.884;2023-10-31T07:32:42;98626.94;;;15.47;83.69
21276;BME280;36472;52.170;20.884;2023-10-31T07:35:11;98619.03;;;15.39;84.21
21276;BME280;36472;52.170;20.884;2023-10-31T07:37:41;98620.56;;;15.33;83.54
21276;BME280;36472;52.170;20.884;2023-10-31T07:40:11;98620.34;;;15.43;82.92
21276;BME280;36472;52.170;20.884;2023-10-31T07:42:41;98635.31;;;15.27;82.96
21276;BME280;36472;52.170;20.884;2023-10-31T07:45:11;98624.28;;;15.47;83.83
21276;BME280;36472;52.170;20.884;2023-10-31T07:47:40;98636.59;;;15.31;83.67
21276;BME280;36472;52.170;20.884;2023-10-31T07:50:10;98636.25;;;15.34;85.06
21276;BME280;36472;52.170;20.884;2023-10-31T07:52:39;98638.09;;;15.34;85.42
21276;BME280;36472;52.170;20.884;2023-10-31T07:55:08;98614.44;;;15.32;85.91
21276;BME280;36472;52.170;20.884;2023-10-31T07:57:42;98604.72;;;15.25;85.28
21276;BME280;36472;52.170;20.884;2023-10-31T08:00:13;98604.13;;;15.14;86.00
21276;BME280;36472;52.170;20.884;2023-10-31T08:02:42;98602.41;;;15.22;86.73
21276;BME280;36472;52.170;20.884;2023-10-31T08:05:11;98592.44;;;15.32;85.25
21276;BME280;36472;52.170;20.884;2023-10-31T08:07:41;98585.38;;;15.47;83.37
21276;BME280;36472;52.170;20.884;2023-10-31T08:10:10;98601.09;;;15.49;83.01
21276;BME280;36472;52.170;20.884;2023-10-31T08:12:39;98599.00;;;15.67;81.16
21276;BME280;36472;52.170;20.884;2023-10-31T08:15:09;98602.44;;;15.68;80.46
21276;BME280;36472;52.170;20.884;2023-10-31T08:17:40;98586.38;;;15.78;79.79
21276;BME280;36472;52.170;20.884;2023-10-31T08:20:10;98599.84;;;15.91;79.98
21276;BME280;36472;52.170;20.884;2023-10-31T08:22:41;98601.22;;;16.02;78.92
21276;BME280;36472;52.170;20.884;2023-10-31T08:25:11;98588.16;;;16.00;77.63
21276;BME280;36472;52.170;20.884;2023-10-31T08:27:40;98591.19;;;16.12;76.40
21276;BME280;36472;52.170;20.884;2023-10-31T08:30:10;98577.38;;;16.40;74.60
21276;BME280;36472;52.170;20.884;2023-10-31T08:32:42;98564.56;;;16.43;74.08
21276;BME280;36472;52.170;20.884;2023-10-31T08:35:11;98581.75;;;16.62;73.35
21276;BME280;36472;52.170;20.884;2023-10-31T08:37:41;98586.47;;;16.82;73.17
21276;BME280;36472;52.170;20.884;2023-10-31T08:40:10;98582.09;;;16.74;73.45
21276;BME280;36472;52.170;20.884;2023-10-31T08:42:39;98606.47;;;16.93;72.72
21276;BME280;36472;52.170;20.884;2023-10-31T08:45:09;98587.50;;;16.96;72.12
21276;BME280;36472;52.170;20.884;2023-10-31T08:47:38;98598.38;;;17.01;71.45
21276;BME280;36472;52.170;20.884;2023-10-31T08:50:09;98594.63;;;17.10;72.21
21276;BME280;36472;52.170;20.884;2023-10-31T08:52:39;98573.88;;;16.99;70.97
21276;BME280;36472;52.170;20.884;2023-10-31T08:55:08;98594.44;;;17.12;70.56
21276;BME280;36472;52.170;20.884;2023-10-31T08:57:37;98573.41;;;17.10;70.07
21276;BME280;36472;52.170;20.884;2023-10-31T09:00:08;98581.34;;;17.10;69.70
21276;BME280;36472;52.170;20.884;2023-10-31T09:02:37;98567.38;;;17.01;69.79
21276;BME280;36472;52.170;20.884;2023-10-31T09:05:08;98593.38;;;17.28;68.09
21276;BME280;36472;52.170;20.884;2023-10-31T09:07:37;98552.72;;;17.06;69.61
21276;BME280;36472;52.170;20.884;2023-10-31T09:10:07;98595.00;;;17.07;69.40
21276;BME280;36472;52.170;20.884;2023-10-31T09:12:37;98591.72;;;17.05;70.44
21276;BME280;36472;52.170;20.884;2023-10-31T09:15:07;98603.13;;;17.20;69.44
21276;BME280;36472;52.170;20.884;2023-10-31T09:17:37;98579.88;;;17.08;69.34
21276;BME280;36472;52.170;20.884;2023-10-31T09:20:09;98575.41;;;17.08;68.99
21276;BME280;36472;52.170;20.884;2023-10-31T09:22:39;98591.16;;;17.10;68.77
21276;BME280;36472;52.170;20.884;2023-10-31T09:25:08;98586.94;;;17.15;68.53
21276;BME280;36472;52.170;20.884;2023-10-31T09:27:40;98587.94;;;17.14;68.76
21276;BME280;36472;52.170;20.884;2023-10-31T09:30:10;98584.28;;;17.15;69.74
21276;BME280;36472;52.170;20.884;2023-10-31T09:32:39;98581.69;;;17.22;68.97
21276;BME280;36472;52.170;20.884;2023-10-31T09:35:10;98592.31;;;17.22;68.35
21276;BME280;36472;52.170;20.884;2023-10-31T09:37:41;98597.44;;;17.24;69.33
21276;BME280;36472;52.170;20.884;2023-10-31T09:40:11;98602.66;;;17.17;69.29
21276;BME280;36472;52.170;20.884;2023-10-31T09:42:40;98610.31;;;17.27;69.30
21276;BME280;36472;52.170;20.884;2023-10-31T09:45:10;98607.88;;;17.25;68.39
21276;BME280;36472;52.170;20.884;2023-10-31T09:47:39;98601.78;;;17.31;69.77
21276;BME280;36472;52.170;20.884;2023-10-31T09:50:11;98605.91;;;17.34;68.70
21276;BME280;36472;52.170;20.884;2023-10-31T09:52:41;98603.91;;;17.36;68.38
21276;BME280;36472;52.170;20.884;2023-10-31T09:55:11;98597.81;;;17.42;68.85
21276;BME280;36472;52.170;20.884;2023-10-31T09:57:40;98596.06;;;17.49;69.32
21276;BME280;36472;52.170;20.884;2023-10-31T10:00:10;98591.03;;;17.54;67.86
21276;BME280;36472;52.170;20.884;2023-10-31T10:02:40;98594.94;;;17.58;68.22
21276;BME280;36472;52.170;20.884;2023-10-31T10:05:14;98576.34;;;17.58;68.68
21276;BME280;36472;52.170;20.884;2023-10-31T10:07:45;98589.25;;;17.62;68.23
21276;BME280;36472;52.170;20.884;2023-10-31T10:10:14;98600.44;;;17.57;67.93
21276;BME280;36472;52.170;20.884;2023-10-31T10:12:44;98602.00;;;17.73;68.34
21276;BME280;36472;52.170;20.884;2023-10-31T10:15:13;98593.03;;;17.74;68.50
21276;BME280;36472;52.170;20.884;2023-10-31T10:17:49;98593.19;;;17.87;66.94
21276;BME280;36472;52.170;20.884;2023-10-31T10:20:20;98607.53;;;17.93;67.55
21276;BME280;36472;52.170;20.884;2023-10-31T10:22:50;98606.78;;;17.99;67.74
21276;BME280;36472;52.170;20.884;2023-10-31T10:25:19;98583.94;;;17.83;66.67
21276;BME280;36472;52.170;20.884;2023-10-31T10:27:48;98615.31;;;18.16;67.67
21276;BME280;36472;52.170;20.884;2023-10-31T10:30:17;98610.41;;;18.20;67.75
21276;BME280;36472;52.170;20.884;2023-10-31T10:32:49;98596.75;;;18.23;67.37
21276;BME280;36472;52.170;20.884;2023-10-31T10:35:20;98568.84;;;18.12;66.50
21276;BME280;36472;52.170;20.884;2023-10-31T10:37:53;98608.97;;;18.45;68.08
21276;BME280;36472;52.170;20.884;2023-10-31T10:40:25;98618.03;;;18.58;67.78
21276;BME280;36472;52.170;20.884;2023-10-31T10:43:00;98609.06;;;18.59;66.94
21276;BME280;36472;52.170;20.884;2023-10-31T10:45:31;98598.88;;;18.69;66.96
21276;BME280;36472;52.170;20.884;2023-10-31T10:48:05;98602.59;;;18.75;68.07
21276;BME280;36472;52.170;20.884;2023-10-31T10:50:43;98610.13;;;18.71;68.16
21276;BME280;36472;52.170;20.884;2023-10-31T10:53:23;98610.34;;;18.69;68.22
21276;BME280;36472;52.170;20.884;2023-10-31T10:56:00;98607.88;;;18.68;67.16
21276;BME280;36472;52.170;20.884;2023-10-31T10:58:40;98557.78;;;18.37;67.75
21276;BME280;36472;52.170;20.884;2023-10-31T11:01:11;98627.06;;;18.63;68.25
21276;BME280;36472;52.170;20.884;2023-10-31T11:03:42;98623.81;;;18.68;69.01
21276;BME280;36472;52.170;20.884;2023-10-31T11:06:13;98611.44;;;18.47;67.08
21276;BME280;36472;52.170;20.884;2023-10-31T11:08:43;98611.66;;;18.52;68.44
21276;BME280;36472;52.170;20.884;2023-10-31T11:11:13;98619.34;;;18.75;68.87
21276;BME280;36472;52.170;20.884;2023-10-31T11:13:44;98631.47;;;18.78;68.86
21276;BME280;36472;52.170;20.884;2023-10-31T11:16:28;98633.31;;;18.77;68.28
21276;BME280;36472;52.170;20.884;2023-10-31T11:18:59;98644.81;;;18.56;69.23
21276;BME280;36472;52.170;20.884;2023-10-31T11:21:30;98632.16;;;18.58;69.22
21276;BME280;36472;52.170;20.884;2023-10-31T11:24:01;98633.41;;;18.62;69.28
21276;BME280;36472;52.170;20.884;2023-10-31T11:26:31;98634.47;;;18.68;69.41
21276;BME280;36472;52.170;20.884;2023-10-31T11:29:04;98630.19;;;18.67;70.23
21276;BME280;36472;52.170;20.884;2023-10-31T11:31:33;98646.91;;;18.61;70.90
21276;BME280;36472;52.170;20.884;2023-10-31T11:34:03;98637.69;;;18.57;69.70
21276;BME280;36472;52.170;20.884;2023-10-31T11:36:36;98649.66;;;18.46;70.19
21276;BME280;36472;52.170;20.884;2023-10-31T11:39:12;98645.03;;;18.55;70.36
21276;BME280;36472;52.170;20.884;2023-10-31T11:41:48;98631.00;;;18.67;70.91
21276;BME280;36472;52.170;20.884;2023-10-31T11:44:22;98650.22;;;18.69;71.33
21276;BME280;36472;52.170;20.884;2023-10-31T11:46:51;98645.06;;;18.61;71.01
21276;BME280;36472;52.170;20.884;2023-10-31T11:49:47;98637.03;;;18.55;71.76
21276;BME280;36472;52.170;20.884;2023-10-31T11:52:18;98644.97;;;18.48;72.70
21276;BME280;36472;52.170;20.884;2023-10-31T11:54:48;98642.72;;;18.45;71.39
21276;BME280;36472;52.170;20.884;2023-10-31T11:57:27;98646.63;;;18.49;72.39
21276;BME280;36472;52.170;20.884;2023-10-31T11:59:56;98667.09;;;18.48;72.28
21276;BME280;36472;52.170;20.884;2023-10-31T12:02:25;98662.53;;;18.42;72.58
21276;BME280;36472;52.170;20.884;2023-10-31T12:05:08;98658.22;;;18.69;71.43
21276;BME280;36472;52.170;20.884;2023-10-31T12:07:45;98672.38;;;19.05;71.27
21276;BME280;36472;52.170;20.884;2023-10-31T12:10:23;98678.56;;;19.12;70.49
21276;BME280;36472;52.170;20.884;2023-10-31T12:12:53;98671.47;;;19.33;70.70
21276;BME280;36472;52.170;20.884;2023-10-31T12:15:22;98681.28;;;19.25;69.82
21276;BME280;36472;52.170;20.884;2023-10-31T12:17:51;98671.78;;;19.10;69.86
21276;BME280;36472;52.170;20.884;2023-10-31T12:20:21;98686.88;;;19.02;71.09
21276;BME280;36472;52.170;20.884;2023-10-31T12:23:03;98671.50;;;18.91;71.07
21276;BME280;36472;52.170;20.884;2023-10-31T12:25:32;98680.09;;;18.93;70.53
21276;BME280;36472;52.170;20.884;2023-10-31T12:28:03;98679.72;;;18.96;71.06
21276;BME280;36472;52.170;20.884;2023-10-31T12:30:44;98691.78;;;18.99;71.15
21276;BME280;36472;52.170;20.884;2023-10-31T12:33:13;98688.56;;;18.82;71.19
21276;BME280;36472;52.170;20.884;2023-10-31T12:35:43;98690.19;;;18.76;71.32
21276;BME280;36472;52.170;20.884;2023-10-31T12:38:15;98691.03;;;18.48;72.04
21276;BME280;36472;52.170;20.884;2023-10-31T12:40:46;98699.81;;;18.49;72.47
21276;BME280;36472;52.170;20.884;2023-10-31T12:43:16;98698.06;;;18.35;72.86
21276;BME280;36472;52.170;20.884;2023-10-31T12:45:45;98698.41;;;18.25;73.17
21276;BME280;36472;52.170;20.884;2023-10-31T12:48:14;98703.97;;;18.08;74.03
21276;BME280;36472;52.170;20.884;2023-10-31T12:50:44;98702.19;;;17.94;74.00
21276;BME280;36472;52.170;20.884;2023-10-31T12:53:23;98691.56;;;17.94;74.45
21276;BME280;36472;52.170;20.884;2023-10-31T12:55:53;98688.19;;;17.85;75.16
21276;BME280;36472;52.170;20.884;2023-10-31T12:58:22;98710.19;;;17.79;75.53
21276;BME280;36472;52.170;20.884;2023-10-31T13:00:51;98737.81;;;18.00;74.21
21276;BME280;36472;52.170;20.884;2023-10-31T13:03:21;98740.66;;;17.98;74.41